MMTJKSAN

Guest
Details From MMTJ - GENERAL ABELARDO L RODRIGUEZ INTL
To KSAN - San Diego Intl
Flight Number -
Tags generated
Created
Modified
Stats Distance 16 nm / 30 km
Max Altitude 200 ft / 61 m
Waypoints 3
Social Downloads 3
Likes 0
Share VATSIM

Download

Looking for another format? Having issues loading an existing format? Contact us
Advertisement - Login to hide

Notes

Basic altitude profile: - Ascent Rate: 2500ft/min - Ascent Speed: 250kts - Cruise Altitude: 35000ft - Cruise Speed: 420kts - Descent Rate: 1500ft/min - Descent Speed: 250kts Options: - Use NATs: yes - Use PACOTS: yes - Use low airways: yes - Use high airways: yes

Route

MMTJ TIJ01 KSAN

ID Type Via Altitude Latitude Longitude Leg Dist Tot Dist Heading (true) Name
O MMTJ APT - 0 ft / 0 m 32.54106˚ -116.97016˚ - 0 nm - GENERAL ABELARDO L RODRIGUEZ INTL
TIJ01 FIX - 200 ft / 61 m 32.55217˚ -116.96736˚ 0 nm 0 nm 12° / 12° -
O KSAN APT - 0 ft / 0 m 32.73356˚ -117.18966˚ 15 nm 16 nm 314° / 314° San Diego Intl

Altitude Profile

Advertisement - Login to hide

MMTJ

Details ICAO MMTJ (TIJ)
Name GENERAL ABELARDO L RODRIGUEZ INTL
Region Mexico
Timezone America/Tijuana (UTC-8.0)
Stats Elevation 489 ft / 149 m (AMSL)
Location 32.541063° -116.970158°
Runways 1
Magnetic Variation 11.443° E

METAR

Not found

TAF

TAF MMTJ 102327Z 1100/1206 08008KT P6SM OVC250 TX29/1121Z TN18/1112Z FM110600 00000KT 5SM HZ OVC250 FM111600 30010KT P6SM BKN250 FM120300 30005KT 5SM HZ SCT20

Decode

Departure Runways

ID Width Length Bearing (true) Bearing (mag) Surface Threshold Offset Overrun Length
09 144 ft / 44 m 9,660 ft / 2,944 m 98.85° 87.41° Concrete 0 ft / 0 m 180 ft / 55 m
27 144 ft / 44 m 9,660 ft / 2,944 m 278.86° 267.42° Concrete 0 ft / 0 m 180 ft / 55 m

KSAN

Details ICAO KSAN (SAN)
Name San Diego Intl
Region United States
Timezone America/Los_Angeles (UTC-8.0)
Stats Elevation 17 ft / 5 m (AMSL)
Location 32.733556° -117.189658°
Runways 1
Magnetic Variation 11.526° E

METAR

KSAN 110151Z 00000KT 10SM SCT250 20/M04 A3012 RMK AO2 SLP199 T02001039

Decode

TAF

KSAN 102335Z 1100/1206 VRB06KT P6SM BKN250 FM112000 30008KT P6SM BKN250 FM120300 VRB03KT P6SM BKN250

Decode

Destination Runways

ID Width Length Bearing (true) Bearing (mag) Surface Threshold Offset Overrun Length
09 200 ft / 61 m 9,387 ft / 2,861 m 106.07° 94.54° Asphalt 699 ft / 213 m 269 ft / 82 m
27 200 ft / 61 m 9,387 ft / 2,861 m 286.08° 274.55° Asphalt 1,811 ft / 552 m 0 ft / 0 m

Approach Navaids

Runway Type Ident Frequency Range Bearing (true) Bearing (mag) Slope Elevation
09 Localiser ISAN 111.55 MHz 18 nm / 33 km 106.08° 94.55° - 17 ft / 5 m (AMSL)
09 Glidescope ISAN 111.55 MHz 10 nm / 19 km 106.08° 94.55° 3.22° 13 ft / 4 m (AMSL)
09 DME ISAN 111.55 MHz 18 nm / 33 km - - - 29 ft / 9 m (AMSL)
27 Localiser IUBR 110.90 MHz 18 nm / 33 km 286.07° 274.54° - 13 ft / 4 m (AMSL)
27 DME IUBR 110.90 MHz 18 nm / 33 km - - - 26 ft / 8 m (AMSL)

Popular Alternatives